sensor_id;sensor_type;location;lat;lon;timestamp;pressure;altitude;pressure_sealevel;temperature;humidity
24486;BME280;13449;49.374;8.584;2023-02-23T00:02:06;100165.75;;;8.87;100.00
24486;BME280;13449;49.374;8.584;2023-02-23T00:04:34;100173.59;;;8.82;100.00
24486;BME280;13449;49.374;8.584;2023-02-23T00:07:01;100161.84;;;8.82;100.00
24486;BME280;13449;49.374;8.584;2023-02-23T00:09:33;100170.88;;;8.82;100.00
24486;BME280;13449;49.374;8.584;2023-02-23T00:12:19;100174.81;;;8.80;100.00
24486;BME280;13449;49.374;8.584;2023-02-23T00:14:51;100173.78;;;8.81;100.00
24486;BME280;13449;49.374;8.584;2023-02-23T00:17:27;100164.78;;;8.80;100.00
24486;BME280;13449;49.374;8.584;2023-02-23T00:19:56;100168.03;;;8.76;100.00
24486;BME280;13449;49.374;8.584;2023-02-23T00:22:33;100165.63;;;8.81;100.00
24486;BME280;13449;49.374;8.584;2023-02-23T00:25:03;100162.91;;;8.81;100.00
24486;BME280;13449;49.374;8.584;2023-02-23T00:27:38;100161.22;;;8.80;100.00
24486;BME280;13449;49.374;8.584;2023-02-23T00:30:14;100158.19;;;8.74;100.00
24486;BME280;13449;49.374;8.584;2023-02-23T00:32:40;100159.63;;;8.85;100.00
24486;BME280;13449;49.374;8.584;2023-02-23T00:35:07;100163.94;;;8.80;100.00
24486;BME280;13449;49.374;8.584;2023-02-23T00:37:48;100162.53;;;8.84;100.00
24486;BME280;13449;49.374;8.584;2023-02-23T00:40:16;100164.25;;;8.85;100.00
24486;BME280;13449;49.374;8.584;2023-02-23T00:42:49;100166.28;;;8.83;100.00
24486;BME280;13449;49.374;8.584;2023-02-23T00:45:17;100162.91;;;8.81;100.00
24486;BME280;13449;49.374;8.584;2023-02-23T00:47:45;100163.94;;;8.80;100.00
24486;BME280;13449;49.374;8.584;2023-02-23T00:50:21;100161.84;;;8.82;100.00
24486;BME280;13449;49.374;8.584;2023-02-23T00:52:51;100165.63;;;8.81;100.00
24486;BME280;13449;49.374;8.584;2023-02-23T00:55:17;100160.19;;;8.81;100.00
24486;BME280;13449;49.374;8.584;2023-02-23T00:57:44;100160.38;;;8.79;100.00
24486;BME280;13449;49.374;8.584;2023-02-23T01:00:11;100166.66;;;8.80;100.00
24486;BME280;13449;49.374;8.584;2023-02-23T01:02:50;100150.50;;;8.78;100.00
24486;BME280;13449;49.374;8.584;2023-02-23T01:05:17;100158.19;;;8.74;100.00
24486;BME280;13449;49.374;8.584;2023-02-23T01:07:44;100157.16;;;8.76;100.00
24486;BME280;13449;49.374;8.584;2023-02-23T01:10:32;100164.41;;;8.83;100.00
24486;BME280;13449;49.374;8.584;2023-02-23T01:12:58;100167.66;;;8.79;100.00
24486;BME280;13449;49.374;8.584;2023-02-23T01:15:30;100155.94;;;8.78;100.00
24486;BME280;13449;49.374;8.584;2023-02-23T01:18:05;100169.44;;;8.71;100.00
24486;BME280;13449;49.374;8.584;2023-02-23T01:20:40;100162.00;;;8.65;100.00
24486;BME280;13449;49.374;8.584;2023-02-23T01:23:13;100161.66;;;8.68;100.00
24486;BME280;13449;49.374;8.584;2023-02-23T01:25:41;100163.03;;;8.64;100.00
24486;BME280;13449;49.374;8.584;2023-02-23T01:28:13;100171.00;;;8.66;100.00
24486;BME280;13449;49.374;8.584;2023-02-23T01:30:43;100172.41;;;8.62;100.00
24486;BME280;13449;49.374;8.584;2023-02-23T01:33:10;100163.50;;;8.68;100.00
24486;BME280;13449;49.374;8.584;2023-02-23T01:35:39;100169.00;;;8.60;100.00
24486;BME280;13449;49.374;8.584;2023-02-23T01:38:05;100165.97;;;8.55;100.00
24486;BME280;13449;49.374;8.584;2023-02-23T01:40:33;100158.44;;;8.65;100.00
24486;BME280;13449;49.374;8.584;2023-02-23T01:43:10;100163.41;;;8.61;100.00
24486;BME280;13449;49.374;8.584;2023-02-23T01:45:43;100169.13;;;8.66;100.00
24486;BME280;13449;49.374;8.584;2023-02-23T01:48:15;100164.34;;;8.68;100.00
24486;BME280;13449;49.374;8.584;2023-02-23T01:53:22;100158.94;;;8.68;100.00
24486;BME280;13449;49.374;8.584;2023-02-23T01:55:53;100161.44;;;8.70;100.00
24486;BME280;13449;49.374;8.584;2023-02-23T01:58:23;100147.31;;;8.74;100.00
24486;BME280;13449;49.374;8.584;2023-02-23T02:00:56;100151.78;;;8.67;100.00
24486;BME280;13449;49.374;8.584;2023-02-23T02:03:29;100153.13;;;8.71;100.00
24486;BME280;13449;49.374;8.584;2023-02-23T02:06:01;100149.91;;;8.68;100.00
24486;BME280;13449;49.374;8.584;2023-02-23T02:08:29;100148.53;;;8.72;100.00
24486;BME280;13449;49.374;8.584;2023-02-23T02:10:57;100149.56;;;8.71;100.00
24486;BME280;13449;49.374;8.584;2023-02-23T02:13:36;100149.06;;;8.67;100.00
24486;BME280;13449;49.374;8.584;2023-02-23T02:16:20;100145.97;;;8.70;100.00
24486;BME280;13449;49.374;8.584;2023-02-23T02:19:01;100147.13;;;8.76;100.00
24486;BME280;13449;49.374;8.584;2023-02-23T02:41:33;100130.09;;;8.82;100.00
24486;BME280;13449;49.374;8.584;2023-02-23T02:44:13;100129.63;;;8.79;100.00
24486;BME280;13449;49.374;8.584;2023-02-23T02:46:52;100122.94;;;8.81;100.00
24486;BME280;13449;49.374;8.584;2023-02-23T02:49:29;100120.91;;;8.83;100.00
24486;BME280;13449;49.374;8.584;2023-02-23T02:52:03;100127.75;;;8.79;100.00
24486;BME280;13449;49.374;8.584;2023-02-23T02:54:39;100118.19;;;8.83;100.00
24486;BME280;13449;49.374;8.584;2023-02-23T02:57:12;100117.34;;;8.83;100.00
24486;BME280;13449;49.374;8.584;2023-02-23T02:59:43;100120.81;;;8.77;100.00
24486;BME280;13449;49.374;8.584;2023-02-23T03:02:30;100119.59;;;8.79;100.00
24486;BME280;13449;49.374;8.584;2023-02-23T03:05:18;100120.22;;;8.81;100.00
24486;BME280;13449;49.374;8.584;2023-02-23T03:11:07;100120.59;;;8.78;100.00
24486;BME280;13449;49.374;8.584;2023-02-23T03:17:15;100117.25;;;8.76;100.00
24486;BME280;13449;49.374;8.584;2023-02-23T03:26:42;100119.97;;;8.76;100.00
24486;BME280;13449;49.374;8.584;2023-02-23T03:32:45;100118.19;;;8.83;100.00
24486;BME280;13449;49.374;8.584;2023-02-23T03:35:51;100118.84;;;8.85;100.00
24486;BME280;13449;49.374;8.584;2023-02-23T03:41:28;100120.84;;;8.91;100.00
24486;BME280;13449;49.374;8.584;2023-02-23T03:44:31;100118.41;;;8.96;100.00
24486;BME280;13449;49.374;8.584;2023-02-23T03:47:21;100122.25;;;9.02;100.00
24486;BME280;13449;49.374;8.584;2023-02-23T03:50:20;100125.84;;;9.02;100.00
24486;BME280;13449;49.374;8.584;2023-02-23T03:53:08;100130.78;;;8.99;100.00
24486;BME280;13449;49.374;8.584;2023-02-23T03:55:57;100129.41;;;9.03;100.00
24486;BME280;13449;49.374;8.584;2023-02-23T03:58:47;100127.88;;;9.00;100.00
24486;BME280;13449;49.374;8.584;2023-02-23T04:01:40;100123.50;;;8.99;100.00
24486;BME280;13449;49.374;8.584;2023-02-23T04:04:33;100125.34;;;8.99;100.00
24486;BME280;13449;49.374;8.584;2023-02-23T04:07:20;100118.69;;;9.01;100.00
24486;BME280;13449;49.374;8.584;2023-02-23T04:10:07;100123.75;;;9.04;100.00
24486;BME280;13449;49.374;8.584;2023-02-23T04:13:00;100125.53;;;8.97;100.00
24486;BME280;13449;49.374;8.584;2023-02-23T04:15:59;100125.06;;;8.94;100.00
24486;BME280;13449;49.374;8.584;2023-02-23T04:18:29;100135.09;;;8.93;100.00
24486;BME280;13449;49.374;8.584;2023-02-23T04:20:57;100130.41;;;9.02;100.00
24486;BME280;13449;49.374;8.584;2023-02-23T04:23:24;100127.31;;;9.05;100.00
24486;BME280;13449;49.374;8.584;2023-02-23T04:25:52;100130.53;;;9.08;100.00
24486;BME280;13449;49.374;8.584;2023-02-23T04:28:19;100127.63;;;9.10;100.00
24486;BME280;13449;49.374;8.584;2023-02-23T04:30:49;100134.25;;;9.07;100.00
24486;BME280;13449;49.374;8.584;2023-02-23T04:33:19;100131.53;;;9.07;100.00
24486;BME280;13449;49.374;8.584;2023-02-23T04:35:47;100127.41;;;9.11;100.00
24486;BME280;13449;49.374;8.584;2023-02-23T04:38:14;100140.94;;;9.05;100.00
24486;BME280;13449;49.374;8.584;2023-02-23T04:40:40;100132.13;;;9.03;100.00
24486;BME280;13449;49.374;8.584;2023-02-23T04:43:07;100130.41;;;9.02;100.00
24486;BME280;13449;49.374;8.584;2023-02-23T04:45:34;100135.19;;;9.00;100.00
24486;BME280;13449;49.374;8.584;2023-02-23T04:48:01;100135.50;;;9.05;100.00
24486;BME280;13449;49.374;8.584;2023-02-23T04:50:27;100129.13;;;9.12;100.00
24486;BME280;13449;49.374;8.584;2023-02-23T04:52:55;100137.47;;;9.11;100.00
24486;BME280;13449;49.374;8.584;2023-02-23T04:55:23;100140.22;;;9.11;100.00
24486;BME280;13449;49.374;8.584;2023-02-23T04:57:51;100135.88;;;9.16;100.00
24486;BME280;13449;49.374;8.584;2023-02-23T05:00:18;100144.88;;;9.17;100.00
24486;BME280;13449;49.374;8.584;2023-02-23T05:02:44;100145.44;;;9.12;100.00
24486;BME280;13449;49.374;8.584;2023-02-23T05:05:11;100136.53;;;9.18;100.00
24486;BME280;13449;49.374;8.584;2023-02-23T05:07:38;100138.31;;;9.11;100.00
24486;BME280;13449;49.374;8.584;2023-02-23T05:10:05;100144.69;;;9.18;100.00
24486;BME280;13449;49.374;8.584;2023-02-23T05:12:32;100145.00;;;9.23;100.00
24486;BME280;13449;49.374;8.584;2023-02-23T05:14:58;100148.47;;;9.17;100.00
24486;BME280;13449;49.374;8.584;2023-02-23T05:17:30;100137.03;;;9.22;100.00
24486;BME280;13449;49.374;8.584;2023-02-23T05:19:56;100137.19;;;9.20;100.00
24486;BME280;13449;49.374;8.584;2023-02-23T05:22:23;100135.81;;;9.25;100.00
24486;BME280;13449;49.374;8.584;2023-02-23T05:24:49;100138.53;;;9.25;100.00
24486;BME280;13449;49.374;8.584;2023-02-23T05:27:16;100138.91;;;9.21;100.00
24486;BME280;13449;49.374;8.584;2023-02-23T05:29:43;100137.19;;;9.20;100.00
24486;BME280;13449;49.374;8.584;2023-02-23T05:32:10;100137.38;;;9.19;100.00
24486;BME280;13449;49.374;8.584;2023-02-23T05:34:37;100133.81;;;9.18;100.00
24486;BME280;13449;49.374;8.584;2023-02-23T05:37:04;100130.28;;;9.18;100.00
24486;BME280;13449;49.374;8.584;2023-02-23T05:39:31;100129.41;;;9.17;100.00
24486;BME280;13449;49.374;8.584;2023-02-23T05:42:00;100129.41;;;9.17;100.00
24486;BME280;13449;49.374;8.584;2023-02-23T05:44:29;100132.03;;;9.11;100.00
24486;BME280;13449;49.374;8.584;2023-02-23T05:46:56;100129.97;;;9.13;100.00
24486;BME280;13449;49.374;8.584;2023-02-23T05:49:23;100139.16;;;9.12;100.00
24486;BME280;13449;49.374;8.584;2023-02-23T05:51:49;100137.81;;;9.08;100.00
24486;BME280;13449;49.374;8.584;2023-02-23T05:54:19;100133.44;;;9.07;100.00
24486;BME280;13449;49.374;8.584;2023-02-23T05:56:48;100138.59;;;9.02;100.00
24486;BME280;13449;49.374;8.584;2023-02-23T05:59:14;100135.56;;;8.97;100.00
24486;BME280;13449;49.374;8.584;2023-02-23T06:01:42;100139.44;;;9.02;100.00
24486;BME280;13449;49.374;8.584;2023-02-23T06:04:09;100140.53;;;8.93;100.00
24486;BME280;13449;49.374;8.584;2023-02-23T06:06:35;100136.69;;;8.88;100.00
24486;BME280;13449;49.374;8.584;2023-02-23T06:09:02;100136.69;;;8.88;100.00
24486;BME280;13449;49.374;8.584;2023-02-23T06:11:28;100136.44;;;8.74;100.00
24486;BME280;13449;49.374;8.584;2023-02-23T06:13:58;100142.25;;;8.71;100.00
24486;BME280;13449;49.374;8.584;2023-02-23T06:16:26;100140.28;;;8.65;100.00
24486;BME280;13449;49.374;8.584;2023-02-23T06:18:53;100151.69;;;8.61;100.00
24486;BME280;13449;49.374;8.584;2023-02-23T06:21:22;100148.28;;;8.59;100.00
24486;BME280;13449;49.374;8.584;2023-02-23T06:23:50;100151.00;;;8.59;100.00
24486;BME280;13449;49.374;8.584;2023-02-23T06:26:17;100147.81;;;8.55;100.00
24486;BME280;13449;49.374;8.584;2023-02-23T06:28:44;100149.28;;;8.66;100.00
24486;BME280;13449;49.374;8.584;2023-02-23T06:31:10;100154.81;;;8.72;100.00
24486;BME280;13449;49.374;8.584;2023-02-23T06:33:40;100156.56;;;8.65;100.00
24486;BME280;13449;49.374;8.584;2023-02-23T06:36:06;100167.09;;;8.68;100.00
24486;BME280;13449;49.374;8.584;2023-02-23T06:38:33;100160.63;;;8.69;100.00
24486;BME280;13449;49.374;8.584;2023-02-23T06:40:59;100168.22;;;8.74;100.00
24486;BME280;13449;49.374;8.584;2023-02-23T06:43:33;100172.47;;;8.77;100.00
24486;BME280;13449;49.374;8.584;2023-02-23T06:46:00;100172.94;;;8.80;100.00
24486;BME280;13449;49.374;8.584;2023-02-23T06:48:29;100176.31;;;8.82;100.00
24486;BME280;13449;49.374;8.584;2023-02-23T06:50:59;100172.94;;;8.80;100.00
24486;BME280;13449;49.374;8.584;2023-02-23T06:53:26;100183.19;;;8.93;100.00
24486;BME280;13449;49.374;8.584;2023-02-23T06:55:52;100190.63;;;8.99;100.00
24486;BME280;13449;49.374;8.584;2023-02-23T06:58:19;100183.19;;;8.93;100.00
24486;BME280;13449;49.374;8.584;2023-02-23T07:00:46;100194.53;;;8.96;100.00
24486;BME280;13449;49.374;8.584;2023-02-23T07:03:12;100189.22;;;9.03;100.00
24486;BME280;13449;49.374;8.584;2023-02-23T07:05:41;100191.56;;;9.06;100.00
24486;BME280;13449;49.374;8.584;2023-02-23T07:08:10;100193.53;;;9.12;100.00
24486;BME280;13449;49.374;8.584;2023-02-23T07:10:36;100185.00;;;9.15;100.00
24486;BME280;13449;49.374;8.584;2023-02-23T07:13:03;100189.06;;;9.19;100.00
24486;BME280;13449;49.374;8.584;2023-02-23T07:15:29;100191.34;;;9.30;100.00
24486;BME280;13449;49.374;8.584;2023-02-23T07:17:56;100201.03;;;9.33;100.00
24486;BME280;13449;49.374;8.584;2023-02-23T07:20:25;100199.16;;;9.33;100.00
24486;BME280;13449;49.374;8.584;2023-02-23T07:22:54;100194.34;;;9.35;100.00
24486;BME280;13449;49.374;8.584;2023-02-23T07:25:21;100207.22;;;9.41;100.00
24486;BME280;13449;49.374;8.584;2023-02-23T07:27:47;100204.13;;;9.44;100.00
24486;BME280;13449;49.374;8.584;2023-02-23T07:30:14;100204.13;;;9.44;100.00
24486;BME280;13449;49.374;8.584;2023-02-23T07:32:41;100204.59;;;9.48;100.00
24486;BME280;13449;49.374;8.584;2023-02-23T07:35:07;100205.25;;;9.50;100.00
24486;BME280;13449;49.374;8.584;2023-02-23T07:37:34;100204.53;;;9.56;100.00
24486;BME280;13449;49.374;8.584;2023-02-23T07:40:01;100211.47;;;9.58;100.00
24486;BME280;13449;49.374;8.584;2023-02-23T07:42:28;100209.69;;;9.65;100.00
24486;BME280;13449;49.374;8.584;2023-02-23T07:44:54;100217.00;;;9.65;100.00
24486;BME280;13449;49.374;8.584;2023-02-23T07:47:21;100218.31;;;9.69;100.00
24486;BME280;13449;49.374;8.584;2023-02-23T07:49:59;100214.84;;;9.75;100.00
24486;BME280;13449;49.374;8.584;2023-02-23T07:52:28;100224.16;;;9.81;100.00
24486;BME280;13449;49.374;8.584;2023-02-23T07:54:55;100216.44;;;9.84;100.00
24486;BME280;13449;49.374;8.584;2023-02-23T07:57:23;100228.19;;;9.85;100.00
24486;BME280;13449;49.374;8.584;2023-02-23T07:59:50;100216.44;;;9.84;100.00
24486;BME280;13449;49.374;8.584;2023-02-23T08:02:17;100218.03;;;9.79;100.00
24486;BME280;13449;49.374;8.584;2023-02-23T08:04:43;100223.31;;;9.80;100.00
24486;BME280;13449;49.374;8.584;2023-02-23T08:07:12;100220.19;;;9.83;100.00
24486;BME280;13449;49.374;8.584;2023-02-23T08:09:41;100222.28;;;9.96;100.00
24486;BME280;13449;49.374;8.584;2023-02-23T08:12:07;100228.94;;;10.08;100.00
24486;BME280;13449;49.374;8.584;2023-02-23T08:14:35;100229.69;;;10.16;100.00
24486;BME280;13449;49.374;8.584;2023-02-23T08:17:02;100226.03;;;10.24;100.00
24486;BME280;13449;49.374;8.584;2023-02-23T08:19:28;100231.13;;;10.27;100.00
24486;BME280;13449;49.374;8.584;2023-02-23T08:21:56;100230.53;;;10.32;100.00
24486;BME280;13449;49.374;8.584;2023-02-23T08:24:25;100225.44;;;10.43;100.00
24486;BME280;13449;49.374;8.584;2023-02-23T08:26:52;100234.97;;;10.54;100.00
24486;BME280;13449;49.374;8.584;2023-02-23T08:29:24;100233.06;;;10.69;100.00
24486;BME280;13449;49.374;8.584;2023-02-23T08:31:50;100231.06;;;10.78;100.00
24486;BME280;13449;49.374;8.584;2023-02-23T08:34:18;100228.22;;;10.86;100.00
24486;BME280;13449;49.374;8.584;2023-02-23T08:36:45;100230.38;;;10.90;100.00
24486;BME280;13449;49.374;8.584;2023-02-23T08:39:12;100237.19;;;11.01;100.00
24486;BME280;13449;49.374;8.584;2023-02-23T08:41:40;100226.84;;;11.18;100.00
24486;BME280;13449;49.374;8.584;2023-02-23T08:44:07;100229.88;;;11.29;100.00
24486;BME280;13449;49.374;8.584;2023-02-23T08:46:33;100237.03;;;11.30;100.00
24486;BME280;13449;49.374;8.584;2023-02-23T08:49:00;100234.50;;;11.29;100.00
24486;BME280;13449;49.374;8.584;2023-02-23T08:51:26;100232.88;;;11.34;100.00
24486;BME280;13449;49.374;8.584;2023-02-23T08:53:52;100239.50;;;11.46;100.00
24486;BME280;13449;49.374;8.584;2023-02-23T08:56:22;100234.22;;;11.45;100.00
24486;BME280;13449;49.374;8.584;2023-02-23T08:58:50;100232.22;;;11.60;100.00
24486;BME280;13449;49.374;8.584;2023-02-23T09:01:21;100231.16;;;11.54;100.00
24486;BME280;13449;49.374;8.584;2023-02-23T09:03:50;100235.94;;;11.52;100.00
24486;BME280;13449;49.374;8.584;2023-02-23T09:06:21;100238.19;;;11.42;100.00
24486;BME280;13449;49.374;8.584;2023-02-23T09:08:48;100232.03;;;11.34;100.00
24486;BME280;13449;49.374;8.584;2023-02-23T09:11:14;100230.72;;;11.30;100.00
24486;BME280;13449;49.374;8.584;2023-02-23T09:13:41;100237.47;;;11.34;100.00
24486;BME280;13449;49.374;8.584;2023-02-23T09:16:08;100227.13;;;11.50;100.00
24486;BME280;13449;49.374;8.584;2023-02-23T09:18:35;100228.25;;;11.62;100.00
24486;BME280;13449;49.374;8.584;2023-02-23T09:21:03;100237.88;;;11.80;100.00
24486;BME280;13449;49.374;8.584;2023-02-23T09:23:35;100231.59;;;11.86;100.00
24486;BME280;13449;49.374;8.584;2023-02-23T09:26:04;100234.16;;;11.87;100.00
24486;BME280;13449;49.374;8.584;2023-02-23T09:28:32;100235.03;;;11.94;99.01
24486;BME280;13449;49.374;8.584;2023-02-23T09:31:15;100239.06;;;12.05;97.90
24486;BME280;13449;49.374;8.584;2023-02-23T09:33:43;100234.47;;;12.05;95.70
24486;BME280;13449;49.374;8.584;2023-02-23T09:36:15;100245.41;;;12.12;96.04
24486;BME280;13449;49.374;8.584;2023-02-23T09:38:47;100245.66;;;12.17;92.89
24486;BME280;13449;49.374;8.584;2023-02-23T09:44:25;100246.59;;;12.37;94.19
24486;BME280;13449;49.374;8.584;2023-02-23T09:47:25;100246.41;;;12.45;90.76
24486;BME280;13449;49.374;8.584;2023-02-23T09:50:10;100251.31;;;12.56;90.25
24486;BME280;13449;49.374;8.584;2023-02-23T09:52:44;100246.50;;;12.65;89.68
24486;BME280;13449;49.374;8.584;2023-02-23T09:55:13;100253.91;;;12.78;88.11
24486;BME280;13449;49.374;8.584;2023-02-23T09:57:46;100248.28;;;12.99;88.91
24486;BME280;13449;49.374;8.584;2023-02-23T10:00:22;100254.41;;;13.07;87.65
24486;BME280;13449;49.374;8.584;2023-02-23T10:03:18;100243.41;;;12.94;86.32
24486;BME280;13449;49.374;8.584;2023-02-23T10:05:59;100252.97;;;13.18;86.48
24486;BME280;13449;49.374;8.584;2023-02-23T10:11:22;100255.09;;;13.42;83.66
24486;BME280;13449;49.374;8.584;2023-02-23T10:16:48;100262.03;;;13.91;81.56
24486;BME280;13449;49.374;8.584;2023-02-23T10:19:39;100256.56;;;13.97;81.38
24486;BME280;13449;49.374;8.584;2023-02-23T10:22:04;100268.34;;;13.91;78.74
24486;BME280;13449;49.374;8.584;2023-02-23T10:24:35;100283.94;;;13.91;76.85
24486;BME280;13449;49.374;8.584;2023-02-23T10:27:18;100258.44;;;14.03;79.14
24486;BME280;13449;49.374;8.584;2023-02-23T10:29:50;100267.06;;;14.07;78.92
24486;BME280;13449;49.374;8.584;2023-02-23T10:32:43;100257.75;;;14.21;79.45
24486;BME280;13449;49.374;8.584;2023-02-23T10:35:16;100269.19;;;14.05;78.64
24486;BME280;13449;49.374;8.584;2023-02-23T10:37:46;100265.81;;;13.96;77.99
24486;BME280;13449;49.374;8.584;2023-02-23T10:40:20;100270.06;;;13.86;78.57
24486;BME280;13449;49.374;8.584;2023-02-23T10:42:49;100279.97;;;13.67;76.40
24486;BME280;13449;49.374;8.584;2023-02-23T10:45:19;100263.50;;;13.80;77.56
24486;BME280;13449;49.374;8.584;2023-02-23T10:47:59;100269.84;;;13.74;77.38
24486;BME280;13449;49.374;8.584;2023-02-23T10:50:28;100265.66;;;13.45;77.45
24486;BME280;13449;49.374;8.584;2023-02-23T10:55:35;100266.03;;;13.16;78.31
24486;BME280;13449;49.374;8.584;2023-02-23T10:58:09;100270.03;;;13.20;77.99
24486;BME280;13449;49.374;8.584;2023-02-23T11:00:51;100264.97;;;13.11;78.36
24486;BME280;13449;49.374;8.584;2023-02-23T11:03:25;100268.47;;;12.98;78.07
24486;BME280;13449;49.374;8.584;2023-02-23T11:05:53;100270.59;;;12.96;79.05
24486;BME280;13449;49.374;8.584;2023-02-23T11:08:36;100264.69;;;12.86;79.14
24486;BME280;13449;49.374;8.584;2023-02-23T11:13:51;100266.09;;;12.75;79.41
24486;BME280;13449;49.374;8.584;2023-02-23T11:16:36;100255.38;;;12.67;79.25
24486;BME280;13449;49.374;8.584;2023-02-23T11:19:18;100261.09;;;12.92;79.73
24486;BME280;13449;49.374;8.584;2023-02-23T11:21:50;100261.38;;;13.10;78.22
24486;BME280;13449;49.374;8.584;2023-02-23T11:24:21;100260.38;;;13.31;77.92
24486;BME280;13449;49.374;8.584;2023-02-23T11:26:53;100276.81;;;13.44;75.40
24486;BME280;13449;49.374;8.584;2023-02-23T11:29:31;100281.88;;;13.60;73.23
24486;BME280;13449;49.374;8.584;2023-02-23T11:32:15;100288.19;;;13.74;72.23
24486;BME280;13449;49.374;8.584;2023-02-23T11:34:42;100282.06;;;13.59;72.38
24486;BME280;13449;49.374;8.584;2023-02-23T11:39:53;100250.47;;;13.69;73.43
24486;BME280;13449;49.374;8.584;2023-02-23T11:42:30;100259.53;;;13.83;72.83
24486;BME280;13449;49.374;8.584;2023-02-23T11:47:29;100240.72;;;13.99;73.75
24486;BME280;13449;49.374;8.584;2023-02-23T11:49:57;100250.84;;;14.06;72.73
24486;BME280;13449;49.374;8.584;2023-02-23T11:52:25;100244.50;;;13.98;72.75
24486;BME280;13449;49.374;8.584;2023-02-23T11:54:58;100242.00;;;13.84;72.89
24486;BME280;13449;49.374;8.584;2023-02-23T11:57:33;100232.75;;;13.85;73.45
24486;BME280;13449;49.374;8.584;2023-02-23T12:00:19;100249.63;;;13.82;71.19
24486;BME280;13449;49.374;8.584;2023-02-23T12:02:52;100252.97;;;13.90;70.38
24486;BME280;13449;49.374;8.584;2023-02-23T12:05:26;100257.84;;;13.75;70.33
24486;BME280;13449;49.374;8.584;2023-02-23T12:08:19;100229.38;;;13.83;72.59
24486;BME280;13449;49.374;8.584;2023-02-23T12:10:58;100222.63;;;13.79;72.97
24486;BME280;13449;49.374;8.584;2023-02-23T12:13:35;100217.53;;;13.95;72.59
24486;BME280;13449;49.374;8.584;2023-02-23T12:26:47;100230.97;;;14.23;68.95
24486;BME280;13449;49.374;8.584;2023-02-23T12:29:26;100249.34;;;14.03;66.78
24486;BME280;13449;49.374;8.584;2023-02-23T12:32:08;100246.38;;;14.11;66.12
24486;BME280;13449;49.374;8.584;2023-02-23T12:34:43;100240.47;;;14.14;66.63
24486;BME280;13449;49.374;8.584;2023-02-23T12:39:57;100245.94;;;14.27;65.63
24486;BME280;13449;49.374;8.584;2023-02-23T12:42:37;100219.97;;;14.36;66.81
24486;BME280;13449;49.374;8.584;2023-02-23T12:45:15;100238.25;;;14.56;65.15
24486;BME280;13449;49.374;8.584;2023-02-23T12:47:51;100234.47;;;14.50;65.69
24486;BME280;13449;49.374;8.584;2023-02-23T13:04:47;100230.31;;;14.28;65.94
24486;BME280;13449;49.374;8.584;2023-02-23T13:07:28;100218.94;;;14.18;66.15
24486;BME280;13449;49.374;8.584;2023-02-23T13:16:14;100182.09;;;14.00;70.31
24486;BME280;13449;49.374;8.584;2023-02-23T13:21:39;100186.50;;;14.08;70.27
24486;BME280;13449;49.374;8.584;2023-02-23T13:26:46;100193.84;;;14.21;70.55
24486;BME280;13449;49.374;8.584;2023-02-23T13:29:41;100204.66;;;14.09;70.03
24486;BME280;13449;49.374;8.584;2023-02-23T13:32:20;100188.44;;;14.01;71.05
24486;BME280;13449;49.374;8.584;2023-02-23T13:34:51;100200.81;;;14.10;70.38
24486;BME280;13449;49.374;8.584;2023-02-23T13:37:23;100188.16;;;14.16;71.14
24486;BME280;13449;49.374;8.584;2023-02-23T13:40:13;100201.84;;;14.22;69.68
24486;BME280;13449;49.374;8.584;2023-02-23T13:43:06;100175.22;;;14.42;70.75
24486;BME280;13449;49.374;8.584;2023-02-23T13:48:45;100197.59;;;14.39;68.34
24486;BME280;13449;49.374;8.584;2023-02-23T13:51:31;100193.97;;;14.45;68.80
24486;BME280;13449;49.374;8.584;2023-02-23T13:54:00;100197.81;;;14.38;68.50
24486;BME280;13449;49.374;8.584;2023-02-23T13:56:31;100197.38;;;14.41;68.91
24486;BME280;13449;49.374;8.584;2023-02-23T13:59:15;100207.28;;;14.29;67.90
24486;BME280;13449;49.374;8.584;2023-02-23T14:01:45;100176.31;;;14.35;69.99
24486;BME280;13449;49.374;8.584;2023-02-23T14:09:27;100195.09;;;14.18;69.03
24486;BME280;13449;49.374;8.584;2023-02-23T14:17:37;100167.53;;;14.00;71.40
24486;BME280;13449;49.374;8.584;2023-02-23T14:28:40;100174.75;;;13.88;71.61
24486;BME280;13449;49.374;8.584;2023-02-23T14:47:11;100173.53;;;13.57;72.74
24486;BME280;13449;49.374;8.584;2023-02-23T14:49:44;100179.88;;;13.51;72.22
24486;BME280;13449;49.374;8.584;2023-02-23T14:52:34;100179.91;;;13.38;72.38
24486;BME280;13449;49.374;8.584;2023-02-23T14:57:41;100174.22;;;13.33;72.77
24486;BME280;13449;49.374;8.584;2023-02-23T15:00:22;100165.78;;;13.28;73.63
24486;BME280;13449;49.374;8.584;2023-02-23T15:05:24;100162.63;;;13.31;74.12
24486;BME280;13449;49.374;8.584;2023-02-23T15:07:53;100166.00;;;13.33;72.54
24486;BME280;13449;49.374;8.584;2023-02-23T15:10:25;100162.84;;;13.36;73.47
24486;BME280;13449;49.374;8.584;2023-02-23T15:13:11;100161.78;;;13.37;73.33
24486;BME280;13449;49.374;8.584;2023-02-23T15:15:48;100172.75;;;13.37;72.55
24486;BME280;13449;49.374;8.584;2023-02-23T15:21:31;100173.56;;;13.31;71.93
24486;BME280;13449;49.374;8.584;2023-02-23T15:24:09;100184.94;;;13.28;71.85
24486;BME280;13449;49.374;8.584;2023-02-23T15:26:38;100169.38;;;13.22;73.10
24486;BME280;13449;49.374;8.584;2023-02-23T15:29:17;100174.00;;;13.15;73.17
24486;BME280;13449;49.374;8.584;2023-02-23T15:31:46;100183.50;;;13.19;72.78
24486;BME280;13449;49.374;8.584;2023-02-23T15:34:19;100171.88;;;13.17;73.04
24486;BME280;13449;49.374;8.584;2023-02-23T15:37:17;100174.44;;;13.12;73.39
24486;BME280;13449;49.374;8.584;2023-02-23T15:39:49;100175.22;;;13.06;73.39
24486;BME280;13449;49.374;8.584;2023-02-23T15:42:23;100171.88;;;13.04;74.17
24486;BME280;13449;49.374;8.584;2023-02-23T15:45:10;100173.13;;;13.01;74.41